Time;durP1;ratioP1;P1;durP2;ratioP2;P2;SDS_P1;SDS_P2;PMS_P1;PMS_P2;Temp;Humidity;BMP_temperature;BMP_pressure;BME280_temperature;BME280_humidity;BME280_pressure;Samples;Min_cycle;Max_cycle;Signal;HPM_P1;HPM_P2
2023/11/06 00:00:14;;;;;;;11.98;2.60;;;10.10;99.90;;;;;;5033665;28;20037;-76
2023/11/06 00:02:40;;;;;;;6.03;1.60;;;10.10;99.90;;;;;;5039598;28;20029;-76
2023/11/06 00:05:08;;;;;;;11.45;2.83;;;10.10;99.90;;;;;;5035071;28;20029;-76
2023/11/06 00:07:34;;;;;;;8.30;1.75;;;10.10;99.90;;;;;;5032780;28;20056;-76
2023/11/06 00:10:00;;;;;;;9.23;2.25;;;10.10;99.90;;;;;;5041096;28;20037;-76
2023/11/06 00:12:26;;;;;;;7.32;1.77;;;10.10;99.90;;;;;;5038116;28;20048;-76
2023/11/06 00:14:54;;;;;;;6.75;2.17;;;10.20;99.90;;;;;;5033106;28;20494;-76
2023/11/06 00:17:20;;;;;;;9.02;2.28;;;10.20;99.90;;;;;;5035794;28;20508;-76
2023/11/06 00:19:46;;;;;;;8.05;1.95;;;10.20;99.90;;;;;;5027234;28;20024;-76
2023/11/06 00:22:12;;;;;;;9.00;1.80;;;10.20;99.90;;;;;;5039367;28;20030;-75
2023/11/06 00:24:38;;;;;;;7.53;2.00;;;10.20;99.90;;;;;;5040803;28;20037;-75
2023/11/06 00:27:04;;;;;;;8.63;1.92;;;10.20;99.90;;;;;;5032736;28;20044;-75
2023/11/06 00:29:30;;;;;;;6.82;1.95;;;10.20;99.90;;;;;;5033197;28;20025;-74
2023/11/06 00:31:56;;;;;;;6.00;1.75;;;10.20;99.90;;;;;;5040948;28;20394;-75
2023/11/06 00:34:22;;;;;;;7.75;2.03;;;10.20;99.90;;;;;;5035027;28;20017;-75
2023/11/06 00:36:48;;;;;;;7.45;1.92;;;10.20;99.90;;;;;;5032607;28;20029;-75
2023/11/06 00:39:13;;;;;;;6.65;1.77;;;10.20;99.90;;;;;;5039029;28;20060;-75
2023/11/06 00:41:40;;;;;;;5.45;1.55;;;10.20;99.90;;;;;;5039239;28;20516;-75
2023/11/06 00:44:06;;;;;;;8.93;2.13;;;10.20;99.90;;;;;;5032379;28;20040;-76
2023/11/06 00:46:32;;;;;;;8.82;1.92;;;10.20;99.90;;;;;;5034442;28;20025;-75
2023/11/06 00:48:58;;;;;;;9.25;1.98;;;10.20;99.90;;;;;;5039162;28;20014;-75
2023/11/06 00:51:23;;;;;;;6.35;1.52;;;10.20;99.90;;;;;;5036535;28;20493;-75
2023/11/06 00:53:49;;;;;;;8.15;1.90;;;10.20;99.90;;;;;;5030619;28;20022;-75
2023/11/06 00:56:15;;;;;;;5.72;1.52;;;10.20;99.90;;;;;;5034768;28;20425;-75
2023/11/06 00:58:41;;;;;;;12.85;2.25;;;10.20;99.90;;;;;;5031119;28;20026;-75
2023/11/06 01:01:06;;;;;;;7.25;1.60;;;10.20;99.90;;;;;;5042931;28;20045;-76
2023/11/06 01:03:32;;;;;;;4.28;1.40;;;10.20;99.90;;;;;;5038033;28;20037;-75
2023/11/06 01:05:59;;;;;;;7.47;1.70;;;10.20;99.90;;;;;;5040498;28;20021;-75
2023/11/06 01:08:25;;;;;;;6.90;1.40;;;10.20;99.90;;;;;;5032347;28;20021;-75
2023/11/06 01:10:50;;;;;;;6.30;1.98;;;10.20;99.90;;;;;;5032940;28;20041;-75
2023/11/06 01:13:16;;;;;;;4.57;1.50;;;10.20;99.90;;;;;;5040238;28;20028;-77
2023/11/06 01:15:42;;;;;;;6.15;1.70;;;10.20;99.90;;;;;;5036646;28;20029;-74
2023/11/06 01:18:09;;;;;;;9.98;2.10;;;10.20;99.90;;;;;;5031896;28;20029;-75
2023/11/06 01:20:35;;;;;;;4.25;1.23;;;10.20;99.90;;;;;;5038217;28;20021;-76
2023/11/06 01:23:01;;;;;;;5.63;1.65;;;10.20;99.90;;;;;;5038566;28;20112;-75
2023/11/06 01:25:27;;;;;;;4.60;1.40;;;10.20;99.90;;;;;;5032548;28;20037;-75
2023/11/06 01:27:52;;;;;;;7.05;2.00;;;10.20;99.90;;;;;;5034311;28;20025;-75
2023/11/06 01:30:18;;;;;;;3.65;1.30;;;10.20;99.90;;;;;;5038944;28;20382;-75
2023/11/06 01:32:44;;;;;;;4.32;1.63;;;10.20;99.90;;;;;;5034931;28;20094;-75
2023/11/06 01:35:11;;;;;;;4.47;1.00;;;10.20;99.90;;;;;;5031998;28;20108;-75
2023/11/06 01:37:38;;;;;;;6.43;1.20;;;10.20;99.90;;;;;;5037361;28;20032;-75
2023/11/06 01:40:06;;;;;;;6.95;1.52;;;10.20;99.90;;;;;;5038973;28;20521;-75
2023/11/06 01:42:32;;;;;;;4.65;1.52;;;10.20;99.90;;;;;;5035093;28;20025;-75
2023/11/06 01:44:58;;;;;;;4.07;1.05;;;10.10;99.90;;;;;;5036908;28;20036;-75
2023/11/06 01:47:24;;;;;;;5.05;1.42;;;10.20;99.90;;;;;;5043688;28;20067;-75
2023/11/06 01:49:50;;;;;;;3.50;0.98;;;10.20;99.90;;;;;;5040749;28;20493;-75
2023/11/06 01:52:21;;;;;;;4.20;0.80;;;10.10;99.90;;;;;;5035714;28;20017;-75
2023/11/06 01:54:47;;;;;;;5.47;1.10;;;10.20;99.90;;;;;;5033575;28;20053;-75
2023/11/06 01:57:15;;;;;;;3.85;0.88;;;10.10;99.90;;;;;;5043773;28;20067;-75
2023/11/06 01:59:42;;;;;;;6.15;1.55;;;10.20;99.90;;;;;;5037382;28;20580;-75
2023/11/06 02:02:09;;;;;;;4.53;1.65;;;10.20;99.90;;;;;;5036563;28;20036;-74
2023/11/06 02:04:35;;;;;;;2.83;0.88;;;10.20;99.90;;;;;;5043475;28;20265;-75
2023/11/06 02:07:00;;;;;;;5.90;1.27;;;10.20;99.90;;;;;;5037121;28;20017;-76
2023/11/06 02:09:29;;;;;;;5.85;1.45;;;10.20;99.90;;;;;;5034683;28;20104;-75
2023/11/06 02:11:57;;;;;;;5.78;1.60;;;10.20;99.90;;;;;;5042549;28;20060;-77
2023/11/06 02:14:25;;;;;;;4.38;1.20;;;10.20;99.90;;;;;;5042048;28;20031;-75
2023/11/06 02:16:53;;;;;;;6.03;1.50;;;10.20;99.90;;;;;;5033938;28;20024;-75
2023/11/06 02:19:20;;;;;;;6.38;1.88;;;10.20;99.90;;;;;;5035519;28;20108;-75
2023/11/06 02:21:52;;;;;;;6.65;1.70;;;10.20;99.90;;;;;;5043315;28;20025;-75
2023/11/06 02:24:18;;;;;;;6.20;1.65;;;10.30;99.90;;;;;;5039684;28;20032;-75
2023/11/06 02:26:54;;;;;;;4.65;2.00;;;10.30;99.90;;;;;;5035155;28;20025;-76
2023/11/06 02:29:20;;;;;;;6.72;2.10;;;10.20;99.90;;;;;;5038133;28;20486;-77
2023/11/06 02:31:46;;;;;;;8.88;2.22;;;10.20;99.90;;;;;;5043036;28;20032;-75
2023/11/06 02:34:12;;;;;;;4.72;2.15;;;10.20;99.90;;;;;;5037318;28;20023;-75
2023/11/06 02:36:39;;;;;;;6.40;2.30;;;10.20;99.90;;;;;;5033352;28;20032;-75
2023/11/06 02:39:05;;;;;;;6.40;2.17;;;10.20;99.90;;;;;;5040585;28;20459;-75
2023/11/06 02:41:32;;;;;;;11.25;2.13;;;10.20;99.90;;;;;;5041326;28;20055;-75
2023/11/06 02:43:57;;;;;;;7.50;2.10;;;10.20;99.90;;;;;;5034706;28;20017;-75
2023/11/06 02:46:23;;;;;;;6.70;2.28;;;10.20;99.90;;;;;;5036514;28;20430;-75
2023/11/06 02:48:49;;;;;;;9.07;2.38;;;10.20;99.90;;;;;;5042533;28;20029;-75
2023/11/06 02:51:16;;;;;;;6.38;2.42;;;10.20;99.90;;;;;;5028728;28;20017;-76
2023/11/06 02:53:42;;;;;;;6.78;1.90;;;10.20;99.90;;;;;;5028870;28;20412;-75
2023/11/06 02:56:07;;;;;;;8.52;2.05;;;10.20;99.90;;;;;;5042151;28;20482;-75
2023/11/06 02:58:33;;;;;;;7.90;2.35;;;10.20;99.90;;;;;;5039540;28;20025;-75
2023/11/06 03:00:59;;;;;;;10.40;2.63;;;10.20;99.90;;;;;;5033649;28;20036;-76
2023/11/06 03:03:25;;;;;;;6.32;2.40;;;10.20;99.90;;;;;;5034995;28;20527;-75
2023/11/06 03:05:50;;;;;;;8.70;2.20;;;10.10;99.90;;;;;;5035416;28;20113;-75
2023/11/06 03:08:17;;;;;;;8.48;2.72;;;10.10;99.90;;;;;;5042091;28;20316;-75
2023/11/06 03:10:42;;;;;;;6.97;2.40;;;10.10;99.90;;;;;;5039116;28;20124;-75
2023/11/06 03:13:08;;;;;;;11.25;2.78;;;10.10;99.90;;;;;;5033840;28;20424;-75
2023/11/06 03:15:35;;;;;;;7.22;2.20;;;10.10;99.90;;;;;;5039365;28;20067;-76
2023/11/06 03:18:01;;;;;;;8.65;2.78;;;10.10;99.90;;;;;;5041830;28;20021;-75
2023/11/06 03:20:27;;;;;;;5.43;2.00;;;10.00;99.90;;;;;;5035324;28;20017;-76
2023/11/06 03:22:52;;;;;;;9.82;2.30;;;10.00;99.90;;;;;;5034648;28;20116;-76
2023/11/06 03:25:18;;;;;;;7.65;2.20;;;10.00;99.90;;;;;;5041686;28;20025;-75
2023/11/06 03:27:44;;;;;;;10.40;2.33;;;10.00;99.90;;;;;;5037472;28;20079;-76
2023/11/06 03:30:10;;;;;;;7.43;2.20;;;10.00;99.90;;;;;;5032482;28;20429;-75
2023/11/06 03:32:36;;;;;;;7.43;1.88;;;10.00;99.90;;;;;;5038227;28;20064;-76
2023/11/06 03:35:02;;;;;;;8.32;1.90;;;10.10;99.90;;;;;;5041620;28;20032;-76
2023/11/06 03:37:28;;;;;;;8.07;2.30;;;10.10;99.90;;;;;;5033497;28;20025;-76
2023/11/06 03:39:54;;;;;;;8.75;1.90;;;10.10;99.90;;;;;;5034408;28;20022;-77
2023/11/06 03:42:19;;;;;;;9.00;1.75;;;10.10;99.90;;;;;;5040255;28;20018;-77
2023/11/06 03:44:45;;;;;;;7.75;2.50;;;10.00;99.90;;;;;;5037093;28;20025;-77
2023/11/06 03:47:11;;;;;;;8.95;1.58;;;10.00;99.90;;;;;;5033738;28;20024;-77
2023/11/06 03:49:36;;;;;;;5.68;1.60;;;10.00;99.90;;;;;;5038007;28;20052;-77
2023/11/06 03:52:03;;;;;;;7.32;1.70;;;10.00;99.90;;;;;;5041672;28;20021;-76
2023/11/06 03:54:29;;;;;;;6.57;1.58;;;10.00;99.90;;;;;;5034164;28;20070;-76
2023/11/06 03:56:55;;;;;;;5.53;1.50;;;10.00;99.90;;;;;;5034101;28;20156;-77
2023/11/06 03:59:20;;;;;;;6.95;1.40;;;10.00;99.90;;;;;;5040430;28;20029;-76
2023/11/06 04:01:46;;;;;;;8.35;1.48;;;9.90;99.90;;;;;;5031515;28;20479;-77
2023/11/06 04:04:12;;;;;;;8.82;1.77;;;10.00;99.90;;;;;;5039747;28;20107;-76
2023/11/06 04:06:37;;;;;;;5.78;1.75;;;9.90;99.90;;;;;;5032957;28;20075;-77
2023/11/06 04:09:04;;;;;;;3.85;1.20;;;9.90;99.90;;;;;;5035616;28;20101;-76
2023/11/06 04:11:29;;;;;;;4.47;1.42;;;9.90;99.90;;;;;;5039526;28;20033;-76
2023/11/06 04:13:56;;;;;;;6.68;1.92;;;9.90;99.90;;;;;;5036581;28;20036;-76
2023/11/06 04:16:22;;;;;;;10.32;1.75;;;9.90;99.90;;;;;;5033173;28;20029;-77
2023/11/06 04:18:48;;;;;;;5.07;1.50;;;9.90;99.90;;;;;;5037880;28;20030;-77
2023/11/06 04:21:14;;;;;;;10.45;1.77;;;9.90;99.90;;;;;;5040609;28;20047;-77
2023/11/06 04:23:39;;;;;;;7.18;1.50;;;9.80;99.90;;;;;;5032573;28;20029;-77
2023/11/06 04:26:05;;;;;;;6.00;1.13;;;9.90;99.90;;;;;;5034156;28;20034;-77
2023/11/06 04:28:31;;;;;;;5.90;1.08;;;9.80;99.90;;;;;;5040671;28;20033;-75
2023/11/06 04:30:56;;;;;;;5.97;1.35;;;9.80;99.90;;;;;;5036549;28;20188;-75
2023/11/06 04:33:22;;;;;;;8.40;1.58;;;9.80;99.90;;;;;;5032452;28;20034;-75
2023/11/06 04:35:48;;;;;;;6.45;1.48;;;9.80;99.90;;;;;;5039617;28;20025;-75
2023/11/06 04:38:13;;;;;;;5.65;1.23;;;9.80;99.90;;;;;;5040173;28;20440;-74
2023/11/06 04:40:39;;;;;;;6.15;1.33;;;9.80;99.90;;;;;;5032462;28;20562;-75
2023/11/06 04:43:05;;;;;;;6.70;1.55;;;9.80;99.90;;;;;;5035034;28;20858;-75
2023/11/06 04:45:31;;;;;;;3.85;1.15;;;9.80;99.90;;;;;;5029876;28;20025;-75
2023/11/06 04:47:57;;;;;;;3.58;1.15;;;9.70;99.90;;;;;;5037012;28;20025;-75
2023/11/06 04:50:23;;;;;;;5.00;1.45;;;9.70;99.90;;;;;;5040491;28;20024;-74
2023/11/06 04:52:48;;;;;;;4.18;1.63;;;9.70;99.90;;;;;;5036300;28;20033;-75
2023/11/06 04:55:14;;;;;;;4.85;1.60;;;9.70;99.90;;;;;;5038648;28;20490;-74
2023/11/06 04:57:40;;;;;;;4.97;1.13;;;9.70;99.90;;;;;;5032071;28;20036;-75
2023/11/06 05:00:12;;;;;;;6.22;1.30;;;9.70;99.90;;;;;;5033503;28;20029;-75
2023/11/06 05:02:38;;;;;;;5.25;1.20;;;9.70;99.90;;;;;;5030829;28;20030;-75
2023/11/06 05:05:07;;;;;;;5.93;1.10;;;9.70;99.90;;;;;;5039946;28;20037;-74
2023/11/06 05:07:33;;;;;;;7.78;1.50;;;9.70;99.90;;;;;;5039411;28;20025;-74
2023/11/06 05:09:58;;;;;;;6.53;1.58;;;9.70;99.90;;;;;;5030461;28;20048;-74
2023/11/06 05:12:24;;;;;;;4.65;1.30;;;9.70;99.90;;;;;;5035672;28;20383;-74
2023/11/06 05:14:49;;;;;;;5.72;1.40;;;9.70;99.90;;;;;;5038820;28;20021;-75
2023/11/06 05:17:15;;;;;;;5.45;1.48;;;9.70;99.90;;;;;;5037612;28;20751;-75
2023/11/06 05:19:44;;;;;;;7.30;1.15;;;9.60;99.90;;;;;;5036207;28;20029;-74
2023/11/06 05:22:10;;;;;;;3.03;1.15;;;9.60;99.90;;;;;;5041647;28;20017;-74
2023/11/06 05:24:41;;;;;;;5.90;1.60;;;9.60;99.90;;;;;;5043004;28;20036;-74
2023/11/06 05:27:06;;;;;;;;;;;9.70;99.90;;;;;;5035576;28;20009;-76
2023/11/06 05:29:33;;;;;;;7.95;0.95;;;9.60;99.90;;;;;;5037676;28;20401;-74
2023/11/06 05:31:59;;;;;;;9.00;1.35;;;9.60;99.90;;;;;;5044388;28;20021;-74
2023/11/06 05:34:25;;;;;;;7.03;1.30;;;9.60;99.90;;;;;;5038245;28;20017;-75
2023/11/06 05:36:51;;;;;;;5.10;1.20;;;9.60;99.90;;;;;;5034651;28;20479;-75
2023/11/06 05:39:17;;;;;;;4.63;1.27;;;9.60;99.90;;;;;;5041364;28;20129;-75
2023/11/06 05:41:48;;;;;;;7.40;1.10;;;9.60;99.90;;;;;;5043955;28;20028;-75
2023/11/06 05:44:14;;;;;;;5.20;1.48;;;9.60;99.90;;;;;;5036619;28;20063;-74
2023/11/06 05:46:40;;;;;;;8.15;1.70;;;9.70;99.90;;;;;;5036654;28;20124;-75
2023/11/06 05:49:06;;;;;;;5.00;1.13;;;9.70;99.90;;;;;;5043518;28;20189;-74
2023/11/06 05:51:32;;;;;;;4.95;1.00;;;9.60;99.90;;;;;;5040706;28;20017;-74
2023/11/06 05:53:57;;;;;;;6.40;1.20;;;9.70;99.90;;;;;;5035220;28;20096;-74
2023/11/06 05:56:23;;;;;;;6.47;1.35;;;9.70;99.90;;;;;;5040853;28;20550;-74
2023/11/06 05:58:49;;;;;;;5.70;1.20;;;9.70;99.90;;;;;;5043628;28;20333;-76
2023/11/06 06:01:16;;;;;;;6.30;1.60;;;9.70;99.90;;;;;;5033479;28;20506;-75
2023/11/06 06:03:42;;;;;;;9.07;1.65;;;9.70;99.90;;;;;;5035519;28;20076;-75
2023/11/06 06:06:09;;;;;;;6.60;1.30;;;9.70;99.90;;;;;;5036601;28;20026;-75
2023/11/06 06:08:35;;;;;;;10.15;1.58;;;9.70;99.90;;;;;;5038421;28;20471;-76
2023/11/06 06:11:01;;;;;;;10.60;2.17;;;9.80;99.90;;;;;;5035741;28;20048;-76
2023/11/06 06:13:27;;;;;;;8.63;1.90;;;9.80;99.90;;;;;;5043013;28;20025;-76
2023/11/06 06:15:53;;;;;;;16.23;2.25;;;9.80;99.90;;;;;;5039553;28;20489;-75
2023/11/06 06:18:18;;;;;;;9.70;2.33;;;9.80;99.90;;;;;;5035144;28;20044;-75
2023/11/06 06:20:44;;;;;;;10.30;2.00;;;9.80;99.90;;;;;;5038427;28;20099;-75
2023/11/06 06:23:10;;;;;;;12.15;2.22;;;9.80;99.90;;;;;;5041723;28;20455;-76
2023/11/06 06:25:36;;;;;;;9.30;2.45;;;9.80;99.90;;;;;;5036738;28;20044;-75
2023/11/06 06:28:04;;;;;;;10.07;2.25;;;9.90;99.90;;;;;;5035015;28;20033;-75
2023/11/06 06:30:30;;;;;;;12.98;2.35;;;9.90;99.90;;;;;;5041332;28;20033;-75
2023/11/06 06:32:56;;;;;;;13.93;2.58;;;9.90;99.90;;;;;;5040475;28;20052;-74
2023/11/06 06:35:22;;;;;;;11.13;2.53;;;9.90;99.90;;;;;;5033052;28;20048;-75
2023/11/06 06:37:48;;;;;;;15.02;2.60;;;10.00;99.90;;;;;;5033940;28;20064;-76
2023/11/06 06:40:13;;;;;;;12.85;2.50;;;10.00;99.90;;;;;;5033832;28;20108;-75
2023/11/06 06:42:39;;;;;;;8.57;2.40;;;10.00;99.90;;;;;;5029741;28;20029;-75
2023/11/06 06:45:06;;;;;;;11.98;3.20;;;10.00;99.90;;;;;;5027422;28;20033;-75
2023/11/06 06:47:32;;;;;;;11.13;2.20;;;10.00;99.90;;;;;;5033421;28;20390;-76
2023/11/06 06:49:58;;;;;;;15.95;2.80;;;10.00;99.90;;;;;;5045618;28;20017;-75
2023/11/06 06:52:24;;;;;;;14.60;2.80;;;10.00;99.90;;;;;;5032947;28;20017;-75
2023/11/06 06:54:50;;;;;;;11.52;3.20;;;10.00;99.90;;;;;;5039564;28;20391;-75
2023/11/06 06:57:15;;;;;;;8.98;2.58;;;10.00;99.90;;;;;;5040686;28;20021;-75
2023/11/06 06:59:41;;;;;;;11.35;2.80;;;10.10;99.90;;;;;;5043407;28;20036;-75
2023/11/06 07:02:08;;;;;;;14.40;3.47;;;10.10;99.90;;;;;;5032190;28;20029;-75
2023/11/06 07:04:33;;;;;;;13.50;3.10;;;10.10;99.90;;;;;;5031999;28;20021;-75
2023/11/06 07:06:59;;;;;;;18.20;2.75;;;10.10;99.90;;;;;;5029177;28;20021;-77
2023/11/06 07:09:27;;;;;;;16.38;3.53;;;10.10;99.90;;;;;;5040927;28;20119;-76
2023/11/06 07:11:53;;;;;;;15.63;2.60;;;10.10;99.90;;;;;;5041255;28;20025;-76
2023/11/06 07:14:19;;;;;;;12.32;3.22;;;10.10;99.90;;;;;;5030299;28;20421;-75
2023/11/06 07:16:46;;;;;;;13.00;3.00;;;10.10;99.90;;;;;;5030209;28;20498;-76
2023/11/06 07:19:11;;;;;;;12.75;2.40;;;10.20;99.90;;;;;;5038568;28;20021;-76
2023/11/06 07:21:38;;;;;;;10.25;2.67;;;10.10;99.90;;;;;;5045403;28;20039;-76
2023/11/06 07:24:04;;;;;;;11.50;2.83;;;10.20;99.90;;;;;;5045073;28;20490;-75
2023/11/06 07:26:30;;;;;;;12.68;2.78;;;10.10;99.90;;;;;;5039011;28;20034;-76
2023/11/06 07:28:55;;;;;;;13.10;2.83;;;10.10;99.90;;;;;;5024738;28;20040;-75
2023/11/06 07:31:24;;;;;;;12.20;2.35;;;10.10;99.90;;;;;;5030078;28;20583;-75
2023/11/06 07:33:53;;;;;;;10.32;2.22;;;10.20;99.90;;;;;;5034281;28;20026;-75
2023/11/06 07:36:18;;;;;;;12.52;2.40;;;10.20;99.90;;;;;;5024034;28;20125;-75
2023/11/06 07:38:44;;;;;;;12.02;3.33;;;10.20;99.90;;;;;;5038904;28;20481;-76
2023/11/06 07:41:11;;;;;;;11.05;2.00;;;10.20;99.90;;;;;;5027415;28;20030;-75
2023/11/06 07:43:37;;;;;;;14.57;2.35;;;10.20;99.90;;;;;;5030227;28;20588;-75
2023/11/06 07:46:03;;;;;;;11.52;2.83;;;10.20;99.90;;;;;;5035889;28;20386;-75
2023/11/06 07:48:29;;;;;;;13.27;2.92;;;10.20;99.90;;;;;;5033234;28;20022;-76
2023/11/06 07:50:55;;;;;;;13.68;3.13;;;10.20;99.90;;;;;;5041165;28;20028;-75
2023/11/06 07:53:20;;;;;;;9.05;2.15;;;10.30;99.90;;;;;;5032490;28;20052;-75
2023/11/06 07:55:47;;;;;;;14.40;2.58;;;10.30;99.90;;;;;;5041786;28;20036;-76
2023/11/06 07:58:13;;;;;;;12.90;2.25;;;10.30;99.90;;;;;;5037056;28;20029;-75
2023/11/06 08:00:40;;;;;;;12.48;2.30;;;10.30;99.90;;;;;;5036995;28;20040;-75
2023/11/06 08:03:06;;;;;;;11.55;2.45;;;10.30;99.90;;;;;;5041451;28;20108;-75
2023/11/06 08:05:32;;;;;;;10.75;2.58;;;10.40;99.90;;;;;;5038281;28;20554;-76
2023/11/06 08:07:58;;;;;;;16.45;2.50;;;10.40;99.90;;;;;;5033283;28;20029;-77
2023/11/06 08:10:27;;;;;;;11.07;2.70;;;10.40;99.90;;;;;;5038110;28;20026;-76
2023/11/06 08:12:53;;;;;;;8.57;2.67;;;10.40;99.90;;;;;;5032614;28;20525;-76
2023/11/06 08:15:20;;;;;;;16.65;2.63;;;10.40;99.90;;;;;;5040285;28;20035;-76
2023/11/06 08:17:45;;;;;;;12.65;2.30;;;10.50;99.90;;;;;;5025018;28;20401;-76
2023/11/06 08:20:11;;;;;;;12.45;2.45;;;10.50;99.90;;;;;;5035023;28;20274;-76
2023/11/06 08:22:37;;;;;;;9.05;1.63;;;10.50;99.90;;;;;;5030804;28;20033;-76
2023/11/06 08:25:04;;;;;;;15.13;2.22;;;10.50;99.90;;;;;;5031220;28;20027;-77
2023/11/06 08:27:30;;;;;;;12.45;2.03;;;10.60;99.90;;;;;;5028351;28;20061;-76
2023/11/06 08:29:55;;;;;;;9.77;2.15;;;10.60;99.90;;;;;;5025708;28;20513;-76
2023/11/06 08:32:22;;;;;;;15.30;3.00;;;10.60;99.90;;;;;;5028084;28;20024;-77
2023/11/06 08:34:48;;;;;;;9.98;1.90;;;10.70;99.90;;;;;;5027108;28;20473;-76
2023/11/06 08:37:14;;;;;;;14.65;2.58;;;10.70;99.90;;;;;;5043126;28;20086;-75
2023/11/06 08:39:46;;;;;;;14.13;2.80;;;10.80;99.90;;;;;;5042848;28;20202;-76
2023/11/06 08:42:13;;;;;;;9.70;2.25;;;10.80;99.90;;;;;;5020972;28;20064;-76
2023/11/06 08:44:45;;;;;;;13.88;3.13;;;10.90;99.90;;;;;;5024790;28;20483;-76
2023/11/06 08:47:12;;;;;;;15.63;2.63;;;10.90;99.90;;;;;;5039279;28;20040;-76
2023/11/06 08:49:38;;;;;;;14.05;2.42;;;11.00;99.90;;;;;;5035768;28;20059;-76
2023/11/06 08:52:04;;;;;;;14.88;2.75;;;11.00;99.90;;;;;;5035943;28;20035;-76
2023/11/06 08:54:34;;;;;;;13.68;2.70;;;11.10;99.90;;;;;;5035253;28;20029;-75
2023/11/06 08:57:00;;;;;;;13.02;2.65;;;11.10;99.90;;;;;;5030412;28;20022;-76
2023/11/06 08:59:26;;;;;;;17.83;2.65;;;11.20;99.90;;;;;;5016451;28;20101;-76
2023/11/06 09:01:52;;;;;;;14.50;2.88;;;11.30;99.90;;;;;;5033179;28;20478;-77
2023/11/06 09:04:18;;;;;;;13.18;3.15;;;11.30;99.90;;;;;;5025278;28;20022;-78
2023/11/06 09:06:44;;;;;;;11.77;2.60;;;11.30;99.90;;;;;;5030005;28;20025;-78
2023/11/06 09:09:10;;;;;;;14.77;2.78;;;11.40;99.90;;;;;;5032904;28;20770;-79
2023/11/06 09:11:38;;;;;;;17.65;3.13;;;11.50;99.90;;;;;;5030974;28;20475;-76
2023/11/06 09:14:04;;;;;;;15.73;2.92;;;11.50;99.90;;;;;;5028944;28;20010;-77
2023/11/06 09:16:34;;;;;;;12.70;2.78;;;11.50;99.90;;;;;;5044860;28;20029;-76
2023/11/06 09:19:00;;;;;;;11.32;2.47;;;11.40;99.90;;;;;;5039004;28;20029;-77
2023/11/06 09:21:26;;;;;;;17.38;4.60;;;11.40;99.90;;;;;;5036457;28;20034;-75
2023/11/06 09:23:52;;;;;;;14.23;2.88;;;11.40;99.90;;;;;;5037728;28;20082;-77
2023/11/06 09:26:19;;;;;;;18.45;3.47;;;11.50;99.90;;;;;;5034951;28;20399;-76
2023/11/06 09:28:45;;;;;;;14.52;3.15;;;11.60;99.90;;;;;;5041962;28;20108;-76
2023/11/06 09:31:10;;;;;;;16.25;3.33;;;11.60;99.90;;;;;;5033687;28;20443;-76
2023/11/06 09:33:36;;;;;;;13.18;2.78;;;11.60;99.90;;;;;;5042654;28;20033;-76
2023/11/06 09:36:02;;;;;;;15.57;3.38;;;11.60;99.90;;;;;;5038784;28;20078;-78
2023/11/06 09:38:28;;;;;;;12.55;2.80;;;11.60;99.90;;;;;;5035127;28;20049;-77
2023/11/06 09:40:54;;;;;;;13.75;2.63;;;11.60;99.90;;;;;;5030409;28;20049;-77
2023/11/06 09:43:20;;;;;;;16.58;3.03;;;11.60;99.90;;;;;;5044154;28;20757;-78
2023/11/06 09:45:46;;;;;;;15.50;3.17;;;11.60;99.90;;;;;;5021498;28;20084;-79
2023/11/06 09:48:17;;;;;;;16.83;2.53;;;11.50;99.90;;;;;;5034299;28;20057;-79
2023/11/06 09:50:46;;;;;;;11.10;2.65;;;11.60;99.90;;;;;;5024803;28;20029;-77
2023/11/06 09:53:12;;;;;;;15.10;3.10;;;11.60;99.90;;;;;;5031126;28;20033;-78
2023/11/06 09:55:40;;;;;;;12.23;2.60;;;11.70;99.90;;;;;;5031641;28;20177;-76
2023/11/06 09:58:06;;;;;;;14.88;3.50;;;11.70;99.90;;;;;;5036139;28;20029;-77
2023/11/06 10:00:32;;;;;;;15.73;3.25;;;11.80;99.90;;;;;;5037781;28;20021;-78
2023/11/06 10:02:58;;;;;;;13.88;2.40;;;11.90;99.90;;;;;;5040534;28;20028;-83
2023/11/06 10:05:24;;;;;;;18.58;2.70;;;11.90;99.90;;;;;;5039071;28;20525;-77
2023/11/06 10:07:56;;;;;;;16.15;3.20;;;12.00;99.90;;;;;;5028361;28;20044;-80
2023/11/06 10:10:24;;;;;;;13.43;3.17;;;12.00;99.90;;;;;;5028457;28;20029;-78
2023/11/06 10:13:06;;;;;;;14.50;2.80;;;12.00;99.90;;;;;;5030064;28;20026;-75
2023/11/06 10:15:34;;;;;;;19.17;3.15;;;11.90;99.90;;;;;;5024952;28;20763;-76
2023/11/06 10:18:13;;;;;;;10.05;2.33;;;11.90;99.90;;;;;;5041050;28;20039;-76
2023/11/06 10:20:50;;;;;;;13.10;3.35;;;11.90;99.90;;;;;;5014607;28;20037;-76
2023/11/06 10:23:24;;;;;;;16.38;2.78;;;11.90;99.90;;;;;;5035354;28;20208;-76
2023/11/06 10:25:53;;;;;;;10.60;2.33;;;11.90;99.90;;;;;;5020545;28;20042;-77
2023/11/06 10:28:20;;;;;;;14.50;2.42;;;11.90;99.90;;;;;;5037346;28;20021;-76
2023/11/06 10:30:51;;;;;;;16.23;2.53;;;11.90;99.90;;;;;;5036632;28;20017;-76
2023/11/06 10:33:18;;;;;;;13.15;2.85;;;11.90;99.90;;;;;;5031169;28;20029;-76
2023/11/06 10:35:45;;;;;;;11.40;1.98;;;12.00;99.90;;;;;;5022719;28;20021;-76
2023/11/06 10:38:31;;;;;;;15.57;3.20;;;12.20;99.90;;;;;;5029780;28;20030;-77
2023/11/06 10:40:58;;;;;;;16.13;3.75;;;12.20;99.90;;;;;;5021067;28;20034;-76
2023/11/06 10:43:24;;;;;;;14.10;2.70;;;12.30;99.90;;;;;;5035431;28;20021;-79
2023/11/06 10:45:51;;;;;;;8.95;2.20;;;12.40;99.90;;;;;;5041373;28;20441;-77
2023/11/06 10:48:30;;;;;;;12.50;2.80;;;12.40;99.90;;;;;;5037565;28;20014;-78
2023/11/06 10:50:56;;;;;;;13.52;3.10;;;12.50;99.90;;;;;;5020769;28;20540;-76
2023/11/06 10:53:25;;;;;;;17.58;3.30;;;12.60;99.90;;;;;;5042162;28;20036;-78
2023/11/06 10:55:52;;;;;;;12.93;2.55;;;12.60;99.90;;;;;;5023115;28;20037;-78
2023/11/06 10:58:21;;;;;;;9.77;2.67;;;12.70;99.90;;;;;;5017351;28;20343;-77
2023/11/06 11:00:48;;;;;;;21.98;3.63;;;12.70;99.90;;;;;;5029702;28;20017;-78
2023/11/06 11:03:15;;;;;;;11.65;2.40;;;12.70;99.90;;;;;;5034522;28;20021;-80
2023/11/06 11:05:41;;;;;;;11.45;2.30;;;12.70;99.90;;;;;;5027755;28;20403;-80
2023/11/06 11:08:08;;;;;;;10.68;2.70;;;12.70;99.90;;;;;;5032755;28;20013;-80
2023/11/06 11:10:33;;;;;;;16.08;2.92;;;12.70;99.90;;;;;;5029812;28;20148;-77
2023/11/06 11:13:02;;;;;;;15.90;3.17;;;12.70;99.90;;;;;;5037909;28;20116;-77
2023/11/06 11:15:33;;;;;;;16.00;3.58;;;12.70;99.90;;;;;;5040258;28;20052;-77
2023/11/06 11:18:04;;;;;;;10.75;2.22;;;12.60;99.90;;;;;;5040641;28;20681;-77
2023/11/06 11:20:50;;;;;;;12.95;2.60;;;12.60;99.90;;;;;;5041292;28;20545;-78
2023/11/06 11:23:15;;;;;;;13.27;3.08;;;12.60;99.90;;;;;;5034153;28;20641;-76
2023/11/06 11:25:59;;;;;;;19.35;2.88;;;12.60;99.90;;;;;;5028732;28;20040;-78
2023/11/06 11:28:26;;;;;;;13.05;2.63;;;12.60;99.90;;;;;;5024310;28;20151;-79
2023/11/06 11:30:53;;;;;;;11.25;2.80;;;12.60;99.90;;;;;;5024891;28;20385;-76
2023/11/06 11:33:56;;;;;;;13.35;2.42;;;12.60;99.90;;;;;;5040713;28;20441;-75
2023/11/06 11:36:28;;;;;;;9.07;2.30;;;12.50;99.90;;;;;;5031263;28;20071;-76
2023/11/06 11:38:57;;;;;;;16.15;2.75;;;12.50;99.90;;;;;;5043558;28;20029;-77
2023/11/06 11:41:23;;;;;;;14.27;2.97;;;12.50;99.90;;;;;;5042351;28;20021;-76
2023/11/06 11:43:49;;;;;;;10.25;2.78;;;12.50;99.90;;;;;;5032537;28;20032;-78
2023/11/06 11:46:47;;;;;;;18.02;2.75;;;12.50;99.90;;;;;;5034362;28;20029;-77
2023/11/06 11:49:39;;;;;;;18.30;2.92;;;12.50;99.90;;;;;;5040443;28;20090;-78
2023/11/06 11:52:06;;;;;;;11.98;2.55;;;12.60;99.90;;;;;;5038457;28;20021;-78
2023/11/06 11:54:33;;;;;;;13.95;3.33;;;12.50;99.90;;;;;;5032104;28;20016;-80
2023/11/06 11:57:02;;;;;;;13.27;2.63;;;12.60;99.90;;;;;;5029963;28;20036;-81
2023/11/06 11:59:32;;;;;;;11.10;2.30;;;12.60;99.90;;;;;;5016151;28;20024;-77
2023/11/06 12:01:58;;;;;;;12.75;2.60;;;12.60;99.90;;;;;;5040706;28;20040;-77
2023/11/06 12:04:25;;;;;;;17.67;2.55;;;12.60;99.90;;;;;;5030028;28;20057;-76
2023/11/06 12:07:03;;;;;;;13.77;2.80;;;12.60;99.90;;;;;;5038234;28;20137;-77
2023/11/06 12:09:51;;;;;;;11.43;2.20;;;12.60;99.90;;;;;;5038124;28;20021;-77
2023/11/06 12:12:21;;;;;;;12.27;2.65;;;12.60;99.90;;;;;;5035574;28;20098;-77
2023/11/06 12:14:47;;;;;;;10.40;2.20;;;12.60;99.90;;;;;;5031181;28;20038;-76
2023/11/06 12:17:14;;;;;;;12.18;2.70;;;12.70;99.90;;;;;;5037122;28;20022;-76
2023/11/06 12:19:42;;;;;;;12.55;2.33;;;12.80;99.90;;;;;;5037924;28;20028;-77
2023/11/06 12:22:08;;;;;;;14.10;2.72;;;12.80;99.90;;;;;;5026843;28;20215;-76
2023/11/06 12:24:55;;;;;;;26.67;2.90;;;12.80;99.90;;;;;;5039729;28;20056;-76
2023/11/06 12:27:33;;;;;;;12.25;3.00;;;12.80;99.90;;;;;;5021120;28;20021;-76
2023/11/06 12:30:11;;;;;;;13.27;3.10;;;12.80;99.90;;;;;;5030989;28;20045;-77
2023/11/06 12:32:38;;;;;;;11.10;2.50;;;12.80;99.90;;;;;;5016208;28;20807;-77
2023/11/06 12:35:03;;;;;;;9.63;2.85;;;12.70;99.90;;;;;;5038545;28;20049;-76
2023/11/06 12:37:30;;;;;;;10.45;2.10;;;12.70;99.90;;;;;;5034010;28;20052;-77
2023/11/06 12:40:13;;;;;;;11.40;2.42;;;12.70;99.90;;;;;;5032645;28;20048;-77
2023/11/06 12:42:41;;;;;;;13.23;2.58;;;12.70;99.90;;;;;;5021368;28;20033;-77